sensor_id;sensor_type;location;lat;lon;timestamp;temperature;humidity
79750;SHT31;69233;51.968;5.658;2023-11-19T11:48:11;18.9;58.8
79750;SHT31;69233;51.968;5.658;2023-11-19T11:50:52;19.6;60.5
79750;SHT31;69233;51.968;5.658;2023-11-19T11:54:35;21.5;54.7
79750;SHT31;69233;51.968;5.658;2023-11-19T11:57:07;21.4;55.4
79750;SHT31;69233;51.968;5.658;2023-11-19T11:59:46;21.5;54.7
79750;SHT31;69233;51.968;5.658;2023-11-19T12:02:17;21.8;53.8
79750;SHT31;69233;51.968;5.658;2023-11-19T12:04:52;22.1;53.2
79750;SHT31;69233;51.968;5.658;2023-11-19T12:07:23;22.4;52.1
79750;SHT31;69233;51.968;5.658;2023-11-19T12:10:08;22.7;51.4
79750;SHT31;69233;51.968;5.658;2023-11-19T12:12:38;22.9;50.5
79750;SHT31;69233;51.968;5.658;2023-11-19T12:15:09;23.1;49.9
79750;SHT31;69233;51.968;5.658;2023-11-19T12:17:41;23.3;49.4
79750;SHT31;69233;51.968;5.658;2023-11-19T12:20:16;23.5;48.8
79750;SHT31;69233;51.968;5.658;2023-11-19T12:22:47;23.6;48.5
79750;SHT31;69233;51.968;5.658;2023-11-19T12:25:18;23.7;48.0
79750;SHT31;69233;51.968;5.658;2023-11-19T12:27:50;23.9;47.6
79750;SHT31;69233;51.968;5.658;2023-11-19T12:30:21;24.0;47.2
79750;SHT31;69233;51.968;5.658;2023-11-19T12:32:52;24.1;46.9
79750;SHT31;69233;51.968;5.658;2023-11-19T12:35:24;24.2;46.6
79750;SHT31;69233;51.968;5.658;2023-11-19T12:37:55;24.3;46.3
79750;SHT31;69233;51.968;5.658;2023-11-19T12:40:24;24.4;46.1
79750;SHT31;69233;51.968;5.658;2023-11-19T12:42:55;24.5;45.8
79750;SHT31;69233;51.968;5.658;2023-11-19T12:45:36;24.6;45.6
79750;SHT31;69233;51.968;5.658;2023-11-19T12:48:06;24.7;45.4
79750;SHT31;69233;51.968;5.658;2023-11-19T12:50:55;24.7;45.2
79750;SHT31;69233;51.968;5.658;2023-11-19T12:53:27;24.8;45.0
79750;SHT31;69233;51.968;5.658;2023-11-19T12:56:09;24.9;44.8
79750;SHT31;69233;51.968;5.658;2023-11-19T12:58:37;24.9;44.6
79750;SHT31;69233;51.968;5.658;2023-11-19T13:01:09;25.0;44.4
79750;SHT31;69233;51.968;5.658;2023-11-19T13:03:44;25.0;44.3
79750;SHT31;69233;51.968;5.658;2023-11-19T13:06:15;25.1;44.1
79750;SHT31;69233;51.968;5.658;2023-11-19T13:08:47;25.1;44.0
79750;SHT31;69233;51.968;5.658;2023-11-19T13:11:34;25.2;43.8
79750;SHT31;69233;51.968;5.658;2023-11-19T13:14:05;25.2;43.7
79750;SHT31;69233;51.968;5.658;2023-11-19T13:16:37;25.3;43.6
79750;SHT31;69233;51.968;5.658;2023-11-19T13:19:09;25.3;43.6
79750;SHT31;69233;51.968;5.658;2023-11-19T13:21:38;25.3;43.4
79750;SHT31;69233;51.968;5.658;2023-11-19T13:24:08;25.3;43.3
79750;SHT31;69233;51.968;5.658;2023-11-19T13:26:37;25.4;43.2
79750;SHT31;69233;51.968;5.658;2023-11-19T13:29:06;25.4;43.1
79750;SHT31;69233;51.968;5.658;2023-11-19T13:31:36;25.4;43.1
79750;SHT31;69233;51.968;5.658;2023-11-19T13:34:05;25.4;43.0
79750;SHT31;69233;51.968;5.658;2023-11-19T13:36:35;25.5;43.0
79750;SHT31;69233;51.968;5.658;2023-11-19T13:39:05;25.5;42.9
79750;SHT31;69233;51.968;5.658;2023-11-19T13:41:34;25.5;42.8
79750;SHT31;69233;51.968;5.658;2023-11-19T13:44:03;25.5;42.6
79750;SHT31;69233;51.968;5.658;2023-11-19T13:46:32;25.5;42.7
79750;SHT31;69233;51.968;5.658;2023-11-19T13:49:00;25.6;42.6
79750;SHT31;69233;51.968;5.658;2023-11-19T13:51:29;25.6;42.6
79750;SHT31;69233;51.968;5.658;2023-11-19T13:53:59;25.6;42.5
79750;SHT31;69233;51.968;5.658;2023-11-19T13:56:27;25.6;42.4
79750;SHT31;69233;51.968;5.658;2023-11-19T13:58:56;25.6;42.4
79750;SHT31;69233;51.968;5.658;2023-11-19T14:01:26;25.6;42.4
79750;SHT31;69233;51.968;5.658;2023-11-19T14:03:55;25.6;42.4
79750;SHT31;69233;51.968;5.658;2023-11-19T14:06:23;25.6;42.5
79750;SHT31;69233;51.968;5.658;2023-11-19T14:08:52;25.6;42.5
79750;SHT31;69233;51.968;5.658;2023-11-19T14:11:20;25.7;42.5
79750;SHT31;69233;51.968;5.658;2023-11-19T14:13:48;25.7;42.6
79750;SHT31;69233;51.968;5.658;2023-11-19T14:16:17;25.7;42.6
79750;SHT31;69233;51.968;5.658;2023-11-19T14:18:46;25.7;42.6
79750;SHT31;69233;51.968;5.658;2023-11-19T14:21:15;25.7;42.7
79750;SHT31;69233;51.968;5.658;2023-11-19T14:23:44;25.7;42.6
79750;SHT31;69233;51.968;5.658;2023-11-19T14:26:12;25.7;42.4
79750;SHT31;69233;51.968;5.658;2023-11-19T14:28:41;25.7;42.5
79750;SHT31;69233;51.968;5.658;2023-11-19T14:31:10;25.7;41.6
79750;SHT31;69233;51.968;5.658;2023-11-19T14:33:40;25.7;40.0
79750;SHT31;69233;51.968;5.658;2023-11-19T14:36:09;25.7;40.2
79750;SHT31;69233;51.968;5.658;2023-11-19T14:38:38;25.7;40.7
79750;SHT31;69233;51.968;5.658;2023-11-19T14:41:07;25.7;40.9
79750;SHT31;69233;51.968;5.658;2023-11-19T14:43:35;25.7;41.0
79750;SHT31;69233;51.968;5.658;2023-11-19T14:46:06;25.7;41.0
79750;SHT31;69233;51.968;5.658;2023-11-19T14:48:35;25.7;41.0
79750;SHT31;69233;51.968;5.658;2023-11-19T14:51:03;25.7;41.1
79750;SHT31;69233;51.968;5.658;2023-11-19T14:53:34;25.7;41.1
79750;SHT31;69233;51.968;5.658;2023-11-19T14:56:03;25.7;41.1
79750;SHT31;69233;51.968;5.658;2023-11-19T14:58:33;25.7;41.1
79750;SHT31;69233;51.968;5.658;2023-11-19T15:01:02;25.7;41.1
79750;SHT31;69233;51.968;5.658;2023-11-19T15:03:31;25.7;41.1
79750;SHT31;69233;51.968;5.658;2023-11-19T15:06:01;25.7;41.1
79750;SHT31;69233;51.968;5.658;2023-11-19T15:08:29;25.7;40.9
79750;SHT31;69233;51.968;5.658;2023-11-19T15:10:58;25.7;39.7
79750;SHT31;69233;51.968;5.658;2023-11-19T15:13:28;25.7;40.0
79750;SHT31;69233;51.968;5.658;2023-11-19T15:15:56;25.7;39.8
79750;SHT31;69233;51.968;5.658;2023-11-19T15:18:27;25.7;40.8
79750;SHT31;69233;51.968;5.658;2023-11-19T15:20:55;25.7;40.8
79750;SHT31;69233;51.968;5.658;2023-11-19T15:23:24;25.7;40.8
79750;SHT31;69233;51.968;5.658;2023-11-19T15:25:52;25.7;40.9
79750;SHT31;69233;51.968;5.658;2023-11-19T15:28:23;25.7;41.1
79750;SHT31;69233;51.968;5.658;2023-11-19T15:30:51;25.7;41.1
79750;SHT31;69233;51.968;5.658;2023-11-19T15:33:20;25.7;41.3
79750;SHT31;69233;51.968;5.658;2023-11-19T15:35:48;25.6;41.3
79750;SHT31;69233;51.968;5.658;2023-11-19T15:38:19;25.6;41.4
79750;SHT31;69233;51.968;5.658;2023-11-19T15:40:47;25.6;41.4
79750;SHT31;69233;51.968;5.658;2023-11-19T15:43:15;25.6;41.5
79750;SHT31;69233;51.968;5.658;2023-11-19T15:45:45;25.6;41.4
79750;SHT31;69233;51.968;5.658;2023-11-19T15:48:14;25.6;39.6
79750;SHT31;69233;51.968;5.658;2023-11-19T15:50:43;25.6;41.5
79750;SHT31;69233;51.968;5.658;2023-11-19T15:53:11;25.6;41.6
79750;SHT31;69233;51.968;5.658;2023-11-19T15:55:40;25.6;41.7
79750;SHT31;69233;51.968;5.658;2023-11-19T15:58:08;25.6;41.4
79750;SHT31;69233;51.968;5.658;2023-11-19T16:00:37;25.6;40.3
79750;SHT31;69233;51.968;5.658;2023-11-19T16:03:07;25.6;42.0
79750;SHT31;69233;51.968;5.658;2023-11-19T16:05:35;25.6;41.9
79750;SHT31;69233;51.968;5.658;2023-11-19T16:08:04;25.6;42.0
79750;SHT31;69233;51.968;5.658;2023-11-19T16:10:34;25.6;42.1
79750;SHT31;69233;51.968;5.658;2023-11-19T16:13:06;25.6;42.2
79750;SHT31;69233;51.968;5.658;2023-11-19T16:15:35;25.6;42.2
79750;SHT31;69233;51.968;5.658;2023-11-19T16:18:04;25.6;42.3
79750;SHT31;69233;51.968;5.658;2023-11-19T16:20:36;25.6;42.4
79750;SHT31;69233;51.968;5.658;2023-11-19T16:23:06;25.6;42.5
79750;SHT31;69233;51.968;5.658;2023-11-19T16:25:34;25.6;42.4
79750;SHT31;69233;51.968;5.658;2023-11-19T16:28:05;25.6;42.5
79750;SHT31;69233;51.968;5.658;2023-11-19T16:30:38;25.6;42.5
79750;SHT31;69233;51.968;5.658;2023-11-19T16:33:07;25.6;42.6
79750;SHT31;69233;51.968;5.658;2023-11-19T16:35:36;25.6;42.6
79750;SHT31;69233;51.968;5.658;2023-11-19T16:38:04;25.6;42.7
79750;SHT31;69233;51.968;5.658;2023-11-19T16:40:34;25.6;42.8
79750;SHT31;69233;51.968;5.658;2023-11-19T16:43:05;25.6;42.9
79750;SHT31;69233;51.968;5.658;2023-11-19T16:45:34;25.6;43.0
79750;SHT31;69233;51.968;5.658;2023-11-19T16:48:02;25.6;43.4
79750;SHT31;69233;51.968;5.658;2023-11-19T16:50:31;25.6;43.8
79750;SHT31;69233;51.968;5.658;2023-11-19T16:53:00;25.6;42.4
79750;SHT31;69233;51.968;5.658;2023-11-19T16:55:31;25.6;44.6
79750;SHT31;69233;51.968;5.658;2023-11-19T16:58:01;25.7;44.9
79750;SHT31;69233;51.968;5.658;2023-11-19T17:00:32;25.7;45.0
79750;SHT31;69233;51.968;5.658;2023-11-19T17:03:02;25.7;45.1
79750;SHT31;69233;51.968;5.658;2023-11-19T17:05:32;25.7;45.1
79750;SHT31;69233;51.968;5.658;2023-11-19T17:08:01;25.7;44.9
79750;SHT31;69233;51.968;5.658;2023-11-19T17:10:32;25.7;44.9
79750;SHT31;69233;51.968;5.658;2023-11-19T17:13:01;25.7;44.8
79750;SHT31;69233;51.968;5.658;2023-11-19T17:15:29;25.7;44.7
79750;SHT31;69233;51.968;5.658;2023-11-19T17:17:58;25.7;44.5
79750;SHT31;69233;51.968;5.658;2023-11-19T17:20:28;25.7;44.3
79750;SHT31;69233;51.968;5.658;2023-11-19T17:22:57;25.7;44.2
79750;SHT31;69233;51.968;5.658;2023-11-19T17:25:29;25.7;43.6
79750;SHT31;69233;51.968;5.658;2023-11-19T17:27:57;25.7;43.6
79750;SHT31;69233;51.968;5.658;2023-11-19T17:30:26;25.7;43.6
79750;SHT31;69233;51.968;5.658;2023-11-19T17:32:56;25.7;43.8
79750;SHT31;69233;51.968;5.658;2023-11-19T17:35:24;25.7;43.8
79750;SHT31;69233;51.968;5.658;2023-11-19T17:37:53;25.7;43.7
79750;SHT31;69233;51.968;5.658;2023-11-19T17:40:21;25.7;43.7
79750;SHT31;69233;51.968;5.658;2023-11-19T17:42:52;25.7;43.2
79750;SHT31;69233;51.968;5.658;2023-11-19T17:45:21;25.7;43.1
79750;SHT31;69233;51.968;5.658;2023-11-19T17:47:50;25.7;43.2
79750;SHT31;69233;51.968;5.658;2023-11-19T17:50:18;25.7;43.2
79750;SHT31;69233;51.968;5.658;2023-11-19T17:52:48;25.7;43.0
79750;SHT31;69233;51.968;5.658;2023-11-19T17:55:17;25.7;43.0
79750;SHT31;69233;51.968;5.658;2023-11-19T17:57:46;25.7;43.2
79750;SHT31;69233;51.968;5.658;2023-11-19T18:00:18;25.7;43.3
79750;SHT31;69233;51.968;5.658;2023-11-19T18:02:48;25.7;43.4
79750;SHT31;69233;51.968;5.658;2023-11-19T18:05:18;25.7;43.5
79750;SHT31;69233;51.968;5.658;2023-11-19T18:07:48;25.7;43.7
79750;SHT31;69233;51.968;5.658;2023-11-19T18:10:18;25.6;43.5
79750;SHT31;69233;51.968;5.658;2023-11-19T18:12:47;25.6;43.6
79750;SHT31;69233;51.968;5.658;2023-11-19T18:15:18;25.6;43.6
79750;SHT31;69233;51.968;5.658;2023-11-19T18:17:49;25.6;43.7
79750;SHT31;69233;51.968;5.658;2023-11-19T18:20:17;25.6;43.8
79750;SHT31;69233;51.968;5.658;2023-11-19T18:22:46;25.6;43.6
79750;SHT31;69233;51.968;5.658;2023-11-19T18:25:15;25.6;43.7
79750;SHT31;69233;51.968;5.658;2023-11-19T18:27:46;25.6;43.6
79750;SHT31;69233;51.968;5.658;2023-11-19T18:30:15;25.6;43.5
79750;SHT31;69233;51.968;5.658;2023-11-19T18:32:45;25.6;43.6
79750;SHT31;69233;51.968;5.658;2023-11-19T18:35:14;25.6;43.7
79750;SHT31;69233;51.968;5.658;2023-11-19T18:37:49;25.6;43.6
79750;SHT31;69233;51.968;5.658;2023-11-19T18:40:18;25.6;43.6
79750;SHT31;69233;51.968;5.658;2023-11-19T18:42:48;25.6;43.5
79750;SHT31;69233;51.968;5.658;2023-11-19T18:45:17;25.6;43.6
79750;SHT31;69233;51.968;5.658;2023-11-19T18:47:48;25.6;43.7
79750;SHT31;69233;51.968;5.658;2023-11-19T18:50:17;25.6;43.8
79750;SHT31;69233;51.968;5.658;2023-11-19T18:52:47;25.6;43.8
79750;SHT31;69233;51.968;5.658;2023-11-19T18:55:16;25.6;43.9
79750;SHT31;69233;51.968;5.658;2023-11-19T18:57:45;25.6;43.9
79750;SHT31;69233;51.968;5.658;2023-11-19T19:00:16;25.6;43.9
79750;SHT31;69233;51.968;5.658;2023-11-19T19:02:45;25.6;43.8
79750;SHT31;69233;51.968;5.658;2023-11-19T19:05:15;25.6;43.8
79750;SHT31;69233;51.968;5.658;2023-11-19T19:07:44;25.6;43.8
79750;SHT31;69233;51.968;5.658;2023-11-19T19:10:14;25.6;43.9
79750;SHT31;69233;51.968;5.658;2023-11-19T19:12:43;25.6;43.8
79750;SHT31;69233;51.968;5.658;2023-11-19T19:15:12;25.6;43.9
79750;SHT31;69233;51.968;5.658;2023-11-19T19:17:40;25.6;43.9
79750;SHT31;69233;51.968;5.658;2023-11-19T19:20:11;25.7;43.7
79750;SHT31;69233;51.968;5.658;2023-11-19T19:22:42;25.7;43.7
79750;SHT31;69233;51.968;5.658;2023-11-19T19:25:12;25.7;43.6
79750;SHT31;69233;51.968;5.658;2023-11-19T19:27:42;25.7;43.5
79750;SHT31;69233;51.968;5.658;2023-11-19T19:30:12;25.7;43.6
79750;SHT31;69233;51.968;5.658;2023-11-19T19:32:41;25.7;43.6
79750;SHT31;69233;51.968;5.658;2023-11-19T19:35:10;25.7;43.6
79750;SHT31;69233;51.968;5.658;2023-11-19T19:37:39;25.7;43.5
79750;SHT31;69233;51.968;5.658;2023-11-19T19:40:08;25.7;43.5
79750;SHT31;69233;51.968;5.658;2023-11-19T19:42:38;25.7;43.5
79750;SHT31;69233;51.968;5.658;2023-11-19T19:45:09;25.7;43.5
79750;SHT31;69233;51.968;5.658;2023-11-19T19:47:38;25.7;43.4
79750;SHT31;69233;51.968;5.658;2023-11-19T19:50:08;25.7;43.5
79750;SHT31;69233;51.968;5.658;2023-11-19T19:52:39;25.7;43.6
79750;SHT31;69233;51.968;5.658;2023-11-19T19:55:09;25.7;43.6
79750;SHT31;69233;51.968;5.658;2023-11-19T19:57:38;25.7;43.5
79750;SHT31;69233;51.968;5.658;2023-11-19T20:00:08;25.7;43.5
79750;SHT31;69233;51.968;5.658;2023-11-19T20:02:40;25.7;43.5
79750;SHT31;69233;51.968;5.658;2023-11-19T20:05:09;25.7;43.5
79750;SHT31;69233;51.968;5.658;2023-11-19T20:07:41;25.8;43.5
79750;SHT31;69233;51.968;5.658;2023-11-19T20:10:10;25.8;43.6
79750;SHT31;69233;51.968;5.658;2023-11-19T20:12:41;25.8;43.6
79750;SHT31;69233;51.968;5.658;2023-11-19T20:15:10;25.8;43.5
79750;SHT31;69233;51.968;5.658;2023-11-19T20:17:41;25.8;43.6
79750;SHT31;69233;51.968;5.658;2023-11-19T20:20:11;25.8;43.7
79750;SHT31;69233;51.968;5.658;2023-11-19T20:22:40;25.8;43.5
79750;SHT31;69233;51.968;5.658;2023-11-19T20:25:09;25.8;43.7
79750;SHT31;69233;51.968;5.658;2023-11-19T20:27:40;25.8;43.7
79750;SHT31;69233;51.968;5.658;2023-11-19T20:30:13;25.8;43.7
79750;SHT31;69233;51.968;5.658;2023-11-19T20:32:42;25.8;43.7
79750;SHT31;69233;51.968;5.658;2023-11-19T20:35:10;25.8;43.7
79750;SHT31;69233;51.968;5.658;2023-11-19T20:37:39;25.8;43.0
79750;SHT31;69233;51.968;5.658;2023-11-19T20:40:09;25.8;43.5
79750;SHT31;69233;51.968;5.658;2023-11-19T20:42:38;25.8;43.5
79750;SHT31;69233;51.968;5.658;2023-11-19T20:45:09;25.8;43.5
79750;SHT31;69233;51.968;5.658;2023-11-19T20:47:38;25.8;43.6
79750;SHT31;69233;51.968;5.658;2023-11-19T20:50:08;25.8;43.6
79750;SHT31;69233;51.968;5.658;2023-11-19T20:52:37;25.8;43.6
79750;SHT31;69233;51.968;5.658;2023-11-19T20:55:08;25.8;43.6
79750;SHT31;69233;51.968;5.658;2023-11-19T20:57:38;25.8;43.6
79750;SHT31;69233;51.968;5.658;2023-11-19T21:00:08;25.8;43.4
79750;SHT31;69233;51.968;5.658;2023-11-19T21:02:39;25.8;43.5
79750;SHT31;69233;51.968;5.658;2023-11-19T21:05:08;25.8;43.5
79750;SHT31;69233;51.968;5.658;2023-11-19T21:07:37;25.8;43.6
79750;SHT31;69233;51.968;5.658;2023-11-19T21:10:08;25.8;43.5
79750;SHT31;69233;51.968;5.658;2023-11-19T21:12:38;25.8;43.5
79750;SHT31;69233;51.968;5.658;2023-11-19T21:15:09;25.8;43.6
79750;SHT31;69233;51.968;5.658;2023-11-19T21:17:38;25.9;43.7
79750;SHT31;69233;51.968;5.658;2023-11-19T21:20:08;25.9;43.7
79750;SHT31;69233;51.968;5.658;2023-11-19T21:22:37;25.9;43.6
79750;SHT31;69233;51.968;5.658;2023-11-19T21:25:07;25.9;43.6
79750;SHT31;69233;51.968;5.658;2023-11-19T21:27:38;25.9;43.6
79750;SHT31;69233;51.968;5.658;2023-11-19T21:30:10;25.9;43.7
79750;SHT31;69233;51.968;5.658;2023-11-19T21:32:39;25.9;43.7
79750;SHT31;69233;51.968;5.658;2023-11-19T21:35:08;25.9;43.7
79750;SHT31;69233;51.968;5.658;2023-11-19T21:37:37;25.9;43.6
79750;SHT31;69233;51.968;5.658;2023-11-19T21:40:09;25.9;43.7
79750;SHT31;69233;51.968;5.658;2023-11-19T21:42:38;25.9;43.7
79750;SHT31;69233;51.968;5.658;2023-11-19T21:45:07;25.9;43.7
79750;SHT31;69233;51.968;5.658;2023-11-19T21:47:36;25.9;43.7
79750;SHT31;69233;51.968;5.658;2023-11-19T21:50:06;25.9;43.7
79750;SHT31;69233;51.968;5.658;2023-11-19T21:52:35;25.9;43.7
79750;SHT31;69233;51.968;5.658;2023-11-19T21:55:07;25.9;43.8
79750;SHT31;69233;51.968;5.658;2023-11-19T21:57:37;25.9;43.8
79750;SHT31;69233;51.968;5.658;2023-11-19T22:00:08;25.9;43.8
79750;SHT31;69233;51.968;5.658;2023-11-19T22:02:37;25.9;43.7
79750;SHT31;69233;51.968;5.658;2023-11-19T22:05:08;25.9;43.7
79750;SHT31;69233;51.968;5.658;2023-11-19T22:07:38;25.9;43.8
79750;SHT31;69233;51.968;5.658;2023-11-19T22:10:08;25.9;43.8
79750;SHT31;69233;51.968;5.658;2023-11-19T22:12:37;25.9;43.9
79750;SHT31;69233;51.968;5.658;2023-11-19T22:15:08;25.9;43.8
79750;SHT31;69233;51.968;5.658;2023-11-19T22:17:37;25.9;43.7
79750;SHT31;69233;51.968;5.658;2023-11-19T22:20:07;25.9;43.8
79750;SHT31;69233;51.968;5.658;2023-11-19T22:22:36;25.9;43.9
79750;SHT31;69233;51.968;5.658;2023-11-19T22:25:08;25.9;44.0
79750;SHT31;69233;51.968;5.658;2023-11-19T22:27:37;25.9;44.1
79750;SHT31;69233;51.968;5.658;2023-11-19T22:30:07;25.9;44.0
79750;SHT31;69233;51.968;5.658;2023-11-19T22:32:37;25.9;44.2
79750;SHT31;69233;51.968;5.658;2023-11-19T22:35:06;25.9;44.2
79750;SHT31;69233;51.968;5.658;2023-11-19T22:37:35;25.9;44.2
79750;SHT31;69233;51.968;5.658;2023-11-19T22:40:05;25.9;44.3
79750;SHT31;69233;51.968;5.658;2023-11-19T22:42:33;25.9;44.4
79750;SHT31;69233;51.968;5.658;2023-11-19T22:45:04;25.8;44.4
79750;SHT31;69233;51.968;5.658;2023-11-19T22:47:32;25.8;44.3
79750;SHT31;69233;51.968;5.658;2023-11-19T22:50:02;25.8;44.2
79750;SHT31;69233;51.968;5.658;2023-11-19T22:52:31;25.8;44.2
79750;SHT31;69233;51.968;5.658;2023-11-19T22:54:59;25.8;44.1
79750;SHT31;69233;51.968;5.658;2023-11-19T22:57:28;25.8;44.1
79750;SHT31;69233;51.968;5.658;2023-11-19T22:59:56;25.8;44.0
79750;SHT31;69233;51.968;5.658;2023-11-19T23:02:24;25.8;44.0
79750;SHT31;69233;51.968;5.658;2023-11-19T23:04:55;25.8;43.9
79750;SHT31;69233;51.968;5.658;2023-11-19T23:07:24;25.8;43.9
79750;SHT31;69233;51.968;5.658;2023-11-19T23:09:53;25.8;43.9
79750;SHT31;69233;51.968;5.658;2023-11-19T23:12:21;25.8;43.8
79750;SHT31;69233;51.968;5.658;2023-11-19T23:14:50;25.7;43.8
79750;SHT31;69233;51.968;5.658;2023-11-19T23:17:23;25.7;43.8
79750;SHT31;69233;51.968;5.658;2023-11-19T23:19:53;25.7;43.8
79750;SHT31;69233;51.968;5.658;2023-11-19T23:22:22;25.7;43.7
79750;SHT31;69233;51.968;5.658;2023-11-19T23:24:51;25.7;43.8
79750;SHT31;69233;51.968;5.658;2023-11-19T23:27:19;25.7;43.7
79750;SHT31;69233;51.968;5.658;2023-11-19T23:29:48;25.7;43.8
79750;SHT31;69233;51.968;5.658;2023-11-19T23:32:16;25.7;43.7
79750;SHT31;69233;51.968;5.658;2023-11-19T23:34:45;25.7;43.6
79750;SHT31;69233;51.968;5.658;2023-11-19T23:37:13;25.7;43.7
79750;SHT31;69233;51.968;5.658;2023-11-19T23:39:42;25.7;43.5
79750;SHT31;69233;51.968;5.658;2023-11-19T23:42:10;25.7;43.6
79750;SHT31;69233;51.968;5.658;2023-11-19T23:44:39;25.7;43.5
79750;SHT31;69233;51.968;5.658;2023-11-19T23:47:08;25.6;43.6
79750;SHT31;69233;51.968;5.658;2023-11-19T23:49:38;25.6;43.5
79750;SHT31;69233;51.968;5.658;2023-11-19T23:52:07;25.6;43.5
79750;SHT31;69233;51.968;5.658;2023-11-19T23:54:36;25.6;43.6
79750;SHT31;69233;51.968;5.658;2023-11-19T23:57:05;25.6;43.5
79750;SHT31;69233;51.968;5.658;2023-11-19T23:59:34;25.6;43.5
